sensor_id;sensor_type;location;lat;lon;timestamp;pressure;altitude;pressure_sealevel;temperature;humidity
19208;BME280;9737;59.466;18.036;2023-08-17T14:38:33;107597.19;;;36.17;49.10
19208;BME280;9737;59.466;18.036;2023-08-17T14:41:02;107125.69;;;35.25;49.21
19208;BME280;9737;59.466;18.036;2023-08-17T14:43:31;106531.28;;;34.04;48.92
19208;BME280;9737;59.466;18.036;2023-08-17T14:45:59;106339.00;;;33.68;48.92
19208;BME280;9737;59.466;18.036;2023-08-17T14:48:27;105825.41;;;32.62;48.91
19208;BME280;9737;59.466;18.036;2023-08-17T14:50:55;105723.13;;;32.44;48.71
19208;BME280;9737;59.466;18.036;2023-08-17T14:53:23;106083.00;;;33.25;47.95
19208;BME280;9737;59.466;18.036;2023-08-17T14:55:51;106230.44;;;33.56;47.92
19208;BME280;9737;59.466;18.036;2023-08-17T14:58:20;105765.28;;;32.56;48.21
19208;BME280;9737;59.466;18.036;2023-08-17T15:00:48;105176.56;;;31.34;47.78
19208;BME280;9737;59.466;18.036;2023-08-17T15:03:16;105020.63;;;31.04;47.59
19208;BME280;9737;59.466;18.036;2023-08-17T15:05:50;104830.97;;;30.64;47.66
19208;BME280;9737;59.466;18.036;2023-08-17T15:08:18;104408.56;;;29.71;47.32
19208;BME280;9737;59.466;18.036;2023-08-17T15:10:46;104284.69;;;29.47;47.49
19208;BME280;9737;59.466;18.036;2023-08-17T15:13:16;104218.28;;;29.34;47.13
19208;BME280;9737;59.466;18.036;2023-08-17T15:15:44;104256.81;;;29.42;47.12
19208;BME280;9737;59.466;18.036;2023-08-17T15:18:12;104204.59;;;29.34;46.99
19208;BME280;9737;59.466;18.036;2023-08-17T15:20:40;103639.16;;;28.05;47.02
19208;BME280;9737;59.466;18.036;2023-08-17T15:23:08;103229.84;;;27.15;46.97
19208;BME280;9737;59.466;18.036;2023-08-17T15:25:36;102930.06;;;26.48;46.88
19208;BME280;9737;59.466;18.036;2023-08-17T15:28:04;102573.88;;;25.68;46.44
19208;BME280;9737;59.466;18.036;2023-08-17T15:30:33;102387.72;;;25.25;46.34
19208;BME280;9737;59.466;18.036;2023-08-17T15:33:01;102251.25;;;24.94;46.31
19208;BME280;9737;59.466;18.036;2023-08-17T15:35:29;102175.13;;;24.76;46.04
19208;BME280;9737;59.466;18.036;2023-08-17T15:37:57;102279.38;;;25.02;46.20
19208;BME280;9737;59.466;18.036;2023-08-17T15:40:25;102316.50;;;25.12;45.93
19208;BME280;9737;59.466;18.036;2023-08-17T15:42:52;102320.91;;;25.13;46.07
19208;BME280;9737;59.466;18.036;2023-08-17T15:45:20;102290.63;;;25.08;45.98
19208;BME280;9737;59.466;18.036;2023-08-17T15:47:50;102290.44;;;25.09;46.00
19208;BME280;9737;59.466;18.036;2023-08-17T15:50:18;102197.94;;;24.83;46.08
19208;BME280;9737;59.466;18.036;2023-08-17T15:52:45;102418.06;;;25.38;45.90
19208;BME280;9737;59.466;18.036;2023-08-17T15:55:13;102799.25;;;26.29;46.02
19208;BME280;9737;59.466;18.036;2023-08-17T15:57:45;103027.72;;;26.80;45.83
19208;BME280;9737;59.466;18.036;2023-08-17T16:00:13;102923.63;;;26.57;45.75
19208;BME280;9737;59.466;18.036;2023-08-17T16:02:41;102690.16;;;26.03;46.05
19208;BME280;9737;59.466;18.036;2023-08-17T16:05:10;102547.34;;;25.70;45.61
19208;BME280;9737;59.466;18.036;2023-08-17T16:07:38;102514.56;;;25.61;45.68
19208;BME280;9737;59.466;18.036;2023-08-17T16:10:06;102636.06;;;25.90;45.86
19208;BME280;9737;59.466;18.036;2023-08-17T16:12:34;102807.13;;;26.32;45.88
19208;BME280;9737;59.466;18.036;2023-08-17T16:15:09;102939.72;;;26.60;46.09
19208;BME280;9737;59.466;18.036;2023-08-17T16:17:37;102745.97;;;26.16;45.94
19208;BME280;9737;59.466;18.036;2023-08-17T16:20:06;102344.31;;;25.23;45.95
19208;BME280;9737;59.466;18.036;2023-08-17T16:22:36;102090.56;;;24.61;45.67
19208;BME280;9737;59.466;18.036;2023-08-17T16:25:07;101879.84;;;24.15;46.02
19208;BME280;9737;59.466;18.036;2023-08-17T16:27:35;101603.84;;;23.47;45.70
19208;BME280;9737;59.466;18.036;2023-08-17T16:30:05;101357.06;;;22.89;45.86
19208;BME280;9737;59.466;18.036;2023-08-17T16:32:33;101161.72;;;22.42;45.60
19208;BME280;9737;59.466;18.036;2023-08-17T16:35:01;101157.81;;;22.44;45.72
19208;BME280;9737;59.466;18.036;2023-08-17T16:37:29;101104.00;;;22.33;45.55
19208;BME280;9737;59.466;18.036;2023-08-17T16:39:59;101086.72;;;22.26;45.82
19208;BME280;9737;59.466;18.036;2023-08-17T16:42:27;100990.94;;;22.03;45.73
19208;BME280;9737;59.466;18.036;2023-08-17T16:44:55;100990.94;;;22.03;45.49
19208;BME280;9737;59.466;18.036;2023-08-17T16:47:22;100994.50;;;22.03;45.49
19208;BME280;9737;59.466;18.036;2023-08-17T16:49:53;100964.53;;;21.96;45.70
19208;BME280;9737;59.466;18.036;2023-08-17T16:52:23;100932.91;;;21.89;45.62
19208;BME280;9737;59.466;18.036;2023-08-17T16:54:51;100882.03;;;21.76;45.70
19208;BME280;9737;59.466;18.036;2023-08-17T16:57:20;100761.53;;;21.49;45.55
19208;BME280;9737;59.466;18.036;2023-08-17T16:59:48;100709.00;;;21.36;45.65
19208;BME280;9737;59.466;18.036;2023-08-17T17:02:16;100690.75;;;21.29;45.75
19208;BME280;9737;59.466;18.036;2023-08-17T17:04:43;100586.38;;;21.04;45.69
19208;BME280;9737;59.466;18.036;2023-08-17T17:07:11;100563.44;;;21.00;45.63
19208;BME280;9737;59.466;18.036;2023-08-17T17:09:39;100498.66;;;20.84;45.75
19208;BME280;9737;59.466;18.036;2023-08-17T17:12:07;100492.59;;;20.82;45.72
19208;BME280;9737;59.466;18.036;2023-08-17T17:14:38;100469.78;;;20.76;45.70
19208;BME280;9737;59.466;18.036;2023-08-17T17:17:06;100419.06;;;20.63;45.70
19208;BME280;9737;59.466;18.036;2023-08-17T17:19:33;100396.47;;;20.56;45.78
19208;BME280;9737;59.466;18.036;2023-08-17T17:22:01;100353.28;;;20.48;45.85
19208;BME280;9737;59.466;18.036;2023-08-17T17:24:30;100308.13;;;20.34;45.87
19208;BME280;9737;59.466;18.036;2023-08-17T17:26:58;100270.00;;;20.29;45.91
19208;BME280;9737;59.466;18.036;2023-08-17T17:29:26;100250.78;;;20.24;45.98
19208;BME280;9737;59.466;18.036;2023-08-17T17:31:56;100201.28;;;20.08;45.99
19208;BME280;9737;59.466;18.036;2023-08-17T17:34:23;100160.03;;;20.00;45.93
19208;BME280;9737;59.466;18.036;2023-08-17T17:36:51;100152.31;;;19.97;45.96
19208;BME280;9737;59.466;18.036;2023-08-17T17:39:19;100135.59;;;19.93;46.04
19208;BME280;9737;59.466;18.036;2023-08-17T17:41:47;100051.81;;;19.72;46.13
19208;BME280;9737;59.466;18.036;2023-08-17T17:44:33;100044.09;;;19.69;46.18
19208;BME280;9737;59.466;18.036;2023-08-17T17:47:02;100031.94;;;19.65;46.14
19208;BME280;9737;59.466;18.036;2023-08-17T17:49:31;100048.28;;;19.71;46.13
19208;BME280;9737;59.466;18.036;2023-08-17T17:51:59;100006.91;;;19.56;46.34
19208;BME280;9737;59.466;18.036;2023-08-17T17:54:27;100014.44;;;19.61;46.37
19208;BME280;9737;59.466;18.036;2023-08-17T17:56:55;99941.75;;;19.44;46.50
19208;BME280;9737;59.466;18.036;2023-08-17T17:59:23;99895.69;;;19.31;46.42
19208;BME280;9737;59.466;18.036;2023-08-17T18:01:51;99874.00;;;19.25;46.42
19208;BME280;9737;59.466;18.036;2023-08-17T18:04:20;99805.91;;;19.08;46.57
19208;BME280;9737;59.466;18.036;2023-08-17T18:06:48;99780.72;;;19.01;46.55
19208;BME280;9737;59.466;18.036;2023-08-17T18:09:16;99766.97;;;18.96;46.60
19208;BME280;9737;59.466;18.036;2023-08-17T18:11:44;99774.03;;;18.97;46.75
19208;BME280;9737;59.466;18.036;2023-08-17T18:14:11;99721.63;;;18.84;46.83
19208;BME280;9737;59.466;18.036;2023-08-17T18:16:40;99652.78;;;18.67;46.89
19208;BME280;9737;59.466;18.036;2023-08-17T18:19:08;99599.53;;;18.54;46.93
19208;BME280;9737;59.466;18.036;2023-08-17T18:21:37;99563.94;;;18.44;46.71
19208;BME280;9737;59.466;18.036;2023-08-17T18:24:05;99514.47;;;18.31;46.90
19208;BME280;9737;59.466;18.036;2023-08-17T18:26:34;99438.47;;;18.14;47.02
19208;BME280;9737;59.466;18.036;2023-08-17T18:29:02;99369.09;;;17.94;47.09
19208;BME280;9737;59.466;18.036;2023-08-17T18:31:30;99315.94;;;17.82;47.07
19208;BME280;9737;59.466;18.036;2023-08-17T18:33:57;99280.25;;;17.73;46.90
19208;BME280;9737;59.466;18.036;2023-08-17T18:36:45;99254.44;;;17.64;47.28
19208;BME280;9737;59.466;18.036;2023-08-17T18:39:13;99225.59;;;17.58;47.27
19208;BME280;9737;59.466;18.036;2023-08-17T18:41:41;99201.34;;;17.51;47.28
19208;BME280;9737;59.466;18.036;2023-08-17T18:44:09;99181.22;;;17.47;47.48
19208;BME280;9737;59.466;18.036;2023-08-17T18:46:37;99228.47;;;17.56;47.43
19208;BME280;9737;59.466;18.036;2023-08-17T18:49:07;99191.78;;;17.49;47.57
19208;BME280;9737;59.466;18.036;2023-08-17T18:51:34;99203.19;;;17.51;47.68
19208;BME280;9737;59.466;18.036;2023-08-17T18:54:05;99186.97;;;17.44;47.83
19208;BME280;9737;59.466;18.036;2023-08-17T18:56:32;99280.63;;;17.70;47.82
19208;BME280;9737;59.466;18.036;2023-08-17T18:59:00;99295.72;;;17.71;47.92
19208;BME280;9737;59.466;18.036;2023-08-17T19:01:28;99267.72;;;17.65;47.93
19208;BME280;9737;59.466;18.036;2023-08-17T19:03:56;99297.41;;;17.72;47.82
19208;BME280;9737;59.466;18.036;2023-08-17T19:06:24;99251.28;;;17.60;48.18
19208;BME280;9737;59.466;18.036;2023-08-17T19:08:52;99206.06;;;17.49;48.38
19208;BME280;9737;59.466;18.036;2023-08-17T19:11:21;99154.84;;;17.36;48.17
19208;BME280;9737;59.466;18.036;2023-08-17T19:13:49;99111.66;;;17.23;48.45
19208;BME280;9737;59.466;18.036;2023-08-17T19:16:17;99105.00;;;17.19;48.45
19208;BME280;9737;59.466;18.036;2023-08-17T19:18:44;99158.56;;;17.35;48.53
19208;BME280;9737;59.466;18.036;2023-08-17T19:21:12;99110.00;;;17.22;48.68
19208;BME280;9737;59.466;18.036;2023-08-17T19:23:40;99041.56;;;17.03;48.78
19208;BME280;9737;59.466;18.036;2023-08-17T19:26:08;98983.56;;;16.87;48.79
19208;BME280;9737;59.466;18.036;2023-08-17T19:28:38;98925.97;;;16.75;48.87
19208;BME280;9737;59.466;18.036;2023-08-17T19:31:05;98887.00;;;16.64;49.00
19208;BME280;9737;59.466;18.036;2023-08-17T19:33:34;98853.47;;;16.54;48.97
19208;BME280;9737;59.466;18.036;2023-08-17T19:36:02;98810.81;;;16.44;49.14
19208;BME280;9737;59.466;18.036;2023-08-17T19:38:30;98785.56;;;16.38;49.12
19208;BME280;9737;59.466;18.036;2023-08-17T19:40:58;98756.19;;;16.30;49.35
19208;BME280;9737;59.466;18.036;2023-08-17T19:43:46;98726.81;;;16.22;49.32
19208;BME280;9737;59.466;18.036;2023-08-17T19:46:13;98694.91;;;16.13;49.63
19208;BME280;9737;59.466;18.036;2023-08-17T19:48:41;98676.72;;;16.08;49.57
19208;BME280;9737;59.466;18.036;2023-08-17T19:51:09;98655.22;;;16.01;49.43
19208;BME280;9737;59.466;18.036;2023-08-17T19:53:37;98645.91;;;15.97;49.62
19208;BME280;9737;59.466;18.036;2023-08-17T19:56:05;98672.75;;;16.04;49.83
19208;BME280;9737;59.466;18.036;2023-08-17T19:58:35;98634.34;;;15.97;49.93
19208;BME280;9737;59.466;18.036;2023-08-17T20:01:05;98634.72;;;15.94;50.02
19208;BME280;9737;59.466;18.036;2023-08-17T20:03:34;98610.50;;;15.87;50.07
19208;BME280;9737;59.466;18.036;2023-08-17T20:06:02;98617.34;;;15.90;49.97
19208;BME280;9737;59.466;18.036;2023-08-17T20:08:32;98620.22;;;15.88;50.51
19208;BME280;9737;59.466;18.036;2023-08-17T20:11:18;98613.38;;;15.86;50.64
19208;BME280;9737;59.466;18.036;2023-08-17T20:13:46;98596.03;;;15.82;50.52
19208;BME280;9737;59.466;18.036;2023-08-17T20:16:15;98570.00;;;15.75;50.39
19208;BME280;9737;59.466;18.036;2023-08-17T20:18:44;98546.63;;;15.69;50.77
19208;BME280;9737;59.466;18.036;2023-08-17T20:21:12;98525.16;;;15.63;50.90
19208;BME280;9737;59.466;18.036;2023-08-17T20:23:41;98532.34;;;15.62;50.79
19208;BME280;9737;59.466;18.036;2023-08-17T20:26:10;98522.66;;;15.61;50.98
19208;BME280;9737;59.466;18.036;2023-08-17T20:28:39;98519.31;;;15.59;51.07
19208;BME280;9737;59.466;18.036;2023-08-17T20:31:07;98502.97;;;15.54;51.15
19208;BME280;9737;59.466;18.036;2023-08-17T20:33:36;98482.28;;;15.48;51.04
19208;BME280;9737;59.466;18.036;2023-08-17T20:36:05;98460.63;;;15.43;51.39
19208;BME280;9737;59.466;18.036;2023-08-17T20:38:33;98465.97;;;15.43;51.54
19208;BME280;9737;59.466;18.036;2023-08-17T20:41:02;98463.50;;;15.41;51.29
19208;BME280;9737;59.466;18.036;2023-08-17T20:43:30;98437.28;;;15.37;51.74
19208;BME280;9737;59.466;18.036;2023-08-17T20:45:58;98425.66;;;15.30;51.83
19208;BME280;9737;59.466;18.036;2023-08-17T20:48:46;98398.63;;;15.25;51.69
19208;BME280;9737;59.466;18.036;2023-08-17T20:51:16;98377.97;;;15.18;51.80
19208;BME280;9737;59.466;18.036;2023-08-17T20:53:43;98373.84;;;15.16;51.95
19208;BME280;9737;59.466;18.036;2023-08-17T20:56:11;98367.84;;;15.14;52.34
19208;BME280;9737;59.466;18.036;2023-08-17T20:58:39;98367.03;;;15.13;52.48
19208;BME280;9737;59.466;18.036;2023-08-17T21:01:07;98353.38;;;15.08;52.54
19208;BME280;9737;59.466;18.036;2023-08-17T21:03:35;98336.06;;;15.04;52.18
19208;BME280;9737;59.466;18.036;2023-08-17T21:06:05;98310.66;;;15.00;52.73
19208;BME280;9737;59.466;18.036;2023-08-17T21:08:34;98307.16;;;15.00;52.66
19208;BME280;9737;59.466;18.036;2023-08-17T21:11:02;98302.19;;;14.97;52.85
19208;BME280;9737;59.466;18.036;2023-08-17T21:13:30;98298.06;;;14.94;52.87
19208;BME280;9737;59.466;18.036;2023-08-17T21:16:03;98296.41;;;14.93;52.89
19208;BME280;9737;59.466;18.036;2023-08-17T21:18:31;98286.09;;;14.90;53.16
19208;BME280;9737;59.466;18.036;2023-08-17T21:20:59;98268.97;;;14.84;52.96
19208;BME280;9737;59.466;18.036;2023-08-17T21:23:28;98259.66;;;14.80;53.37
19208;BME280;9737;59.466;18.036;2023-08-17T21:25:57;98233.66;;;14.74;53.12
19208;BME280;9737;59.466;18.036;2023-08-17T21:28:44;98207.69;;;14.68;53.50
19208;BME280;9737;59.466;18.036;2023-08-17T21:31:12;98187.88;;;14.63;53.73
19208;BME280;9737;59.466;18.036;2023-08-17T21:33:40;98175.91;;;14.59;53.56
19208;BME280;9737;59.466;18.036;2023-08-17T21:36:08;98172.59;;;14.56;53.58
19208;BME280;9737;59.466;18.036;2023-08-17T21:38:37;98155.28;;;14.52;53.65
19208;BME280;9737;59.466;18.036;2023-08-17T21:41:05;98140.66;;;14.48;53.71
19208;BME280;9737;59.466;18.036;2023-08-17T21:43:32;98121.66;;;14.43;54.03
19208;BME280;9737;59.466;18.036;2023-08-17T21:46:00;98114.00;;;14.40;54.04
19208;BME280;9737;59.466;18.036;2023-08-17T21:48:52;98077.75;;;14.31;54.14
19208;BME280;9737;59.466;18.036;2023-08-17T21:51:20;98055.47;;;14.24;54.09
19208;BME280;9737;59.466;18.036;2023-08-17T21:53:49;98048.69;;;14.21;54.32
19208;BME280;9737;59.466;18.036;2023-08-17T21:56:17;98048.47;;;14.23;54.70
19208;BME280;9737;59.466;18.036;2023-08-17T21:58:45;98069.28;;;14.27;54.87
19208;BME280;9737;59.466;18.036;2023-08-17T22:01:13;98038.19;;;14.20;54.93
19208;BME280;9737;59.466;18.036;2023-08-17T22:04:00;98039.41;;;14.17;54.77
19208;BME280;9737;59.466;18.036;2023-08-17T22:06:28;98033.38;;;14.15;54.66
19208;BME280;9737;59.466;18.036;2023-08-17T22:08:57;98031.72;;;14.14;54.80
19208;BME280;9737;59.466;18.036;2023-08-17T22:11:24;98015.25;;;14.11;55.40
19208;BME280;9737;59.466;18.036;2023-08-17T22:13:52;98003.91;;;14.02;55.12
19208;BME280;9737;59.466;18.036;2023-08-17T22:16:20;97998.34;;;14.04;55.35
19208;BME280;9737;59.466;18.036;2023-08-17T22:18:49;97995.69;;;14.04;55.26
19208;BME280;9737;59.466;18.036;2023-08-17T22:21:17;97976.75;;;13.99;55.68
19208;BME280;9737;59.466;18.036;2023-08-17T22:23:45;97963.16;;;13.93;55.63
19208;BME280;9737;59.466;18.036;2023-08-17T22:26:15;97944.19;;;13.88;55.56
19208;BME280;9737;59.466;18.036;2023-08-17T22:28:42;97926.06;;;13.84;55.73
19208;BME280;9737;59.466;18.036;2023-08-17T22:31:10;97926.25;;;13.82;56.18
19208;BME280;9737;59.466;18.036;2023-08-17T22:33:38;97901.97;;;13.77;55.90
19208;BME280;9737;59.466;18.036;2023-08-17T22:36:06;97885.72;;;13.72;56.08
19208;BME280;9737;59.466;18.036;2023-08-17T22:38:34;97893.53;;;13.74;56.27
19208;BME280;9737;59.466;18.036;2023-08-17T22:41:02;97895.19;;;13.75;56.50
19208;BME280;9737;59.466;18.036;2023-08-17T22:43:31;97896.00;;;13.75;56.46
19208;BME280;9737;59.466;18.036;2023-08-17T22:46:01;97899.69;;;13.74;56.36
19208;BME280;9737;59.466;18.036;2023-08-17T22:48:30;97892.06;;;13.71;56.62
19208;BME280;9737;59.466;18.036;2023-08-17T22:50:57;97886.72;;;13.71;57.03
19208;BME280;9737;59.466;18.036;2023-08-17T22:53:25;97895.75;;;13.70;56.80
19208;BME280;9737;59.466;18.036;2023-08-17T22:55:53;97881.78;;;13.68;57.16
19208;BME280;9737;59.466;18.036;2023-08-17T22:58:21;97887.13;;;13.68;57.21
19208;BME280;9737;59.466;18.036;2023-08-17T23:00:50;97876.81;;;13.65;57.25
19208;BME280;9737;59.466;18.036;2023-08-17T23:03:20;97881.34;;;13.64;57.14
19208;BME280;9737;59.466;18.036;2023-08-17T23:05:48;97870.84;;;13.63;57.37
19208;BME280;9737;59.466;18.036;2023-08-17T23:08:16;97876.19;;;13.63;57.57
19208;BME280;9737;59.466;18.036;2023-08-17T23:10:44;97906.63;;;13.69;57.87
19208;BME280;9737;59.466;18.036;2023-08-17T23:13:12;97911.78;;;13.70;58.00
19208;BME280;9737;59.466;18.036;2023-08-17T23:15:40;97881.53;;;13.63;57.93
19208;BME280;9737;59.466;18.036;2023-08-17T23:18:09;97890.19;;;13.65;57.96
19208;BME280;9737;59.466;18.036;2023-08-17T23:20:37;97878.25;;;13.61;58.07
19208;BME280;9737;59.466;18.036;2023-08-17T23:23:06;97878.25;;;13.61;58.18
19208;BME280;9737;59.466;18.036;2023-08-17T23:25:34;97887.28;;;13.60;58.42
19208;BME280;9737;59.466;18.036;2023-08-17T23:28:03;97894.50;;;13.66;58.51
19208;BME280;9737;59.466;18.036;2023-08-17T23:30:31;97907.84;;;13.66;58.64
19208;BME280;9737;59.466;18.036;2023-08-17T23:32:58;97921.44;;;13.71;58.58
19208;BME280;9737;59.466;18.036;2023-08-17T23:35:46;97894.69;;;13.64;58.66
19208;BME280;9737;59.466;18.036;2023-08-17T23:38:14;97906.41;;;13.63;58.76
19208;BME280;9737;59.466;18.036;2023-08-17T23:40:42;97885.63;;;13.59;58.68
19208;BME280;9737;59.466;18.036;2023-08-17T23:43:10;97866.47;;;13.55;59.05
19208;BME280;9737;59.466;18.036;2023-08-17T23:45:38;97849.34;;;13.43;59.01
19208;BME280;9737;59.466;18.036;2023-08-17T23:48:06;97849.78;;;13.47;59.27
19208;BME280;9737;59.466;18.036;2023-08-17T23:50:34;97824.28;;;13.44;59.51
19208;BME280;9737;59.466;18.036;2023-08-17T23:53:05;97816.88;;;13.40;59.49
19208;BME280;9737;59.466;18.036;2023-08-17T23:55:51;97802.44;;;13.34;59.77
19208;BME280;9737;59.466;18.036;2023-08-17T23:58:19;97797.94;;;13.35;59.75
